createdAt,value
2023-03-23T00:01:20.132Z,997.28
2023-03-23T00:04:20.109Z,997.33
2023-03-23T00:07:20.102Z,997.31
2023-03-23T00:10:20.107Z,997.32
2023-03-23T00:13:20.087Z,997.3
2023-03-23T00:16:20.097Z,997.27
2023-03-23T00:19:20.095Z,997.26
2023-03-23T00:22:20.089Z,997.29
2023-03-23T00:25:20.160Z,997.24
2023-03-23T00:28:20.104Z,997.23
2023-03-23T00:31:20.094Z,997.31
2023-03-23T00:34:20.090Z,997.29
2023-03-23T00:37:20.105Z,997.26
2023-03-23T00:40:20.125Z,997.22
2023-03-23T00:43:20.087Z,997.29
2023-03-23T00:46:20.089Z,997.26
2023-03-23T00:49:20.085Z,997.18
2023-03-23T00:52:20.099Z,997.11
2023-03-23T00:55:20.097Z,997.04
2023-03-23T00:58:20.091Z,997.05
2023-03-23T01:01:20.101Z,996.99
2023-03-23T01:04:20.092Z,997.04
2023-03-23T01:07:20.103Z,997.01
2023-03-23T01:10:20.105Z,997.04
2023-03-23T01:13:20.077Z,997.05
2023-03-23T01:16:20.083Z,996.99
2023-03-23T01:19:20.073Z,996.95
2023-03-23T01:22:20.094Z,996.84
2023-03-23T01:25:20.091Z,996.93
2023-03-23T01:28:20.094Z,996.83
2023-03-23T01:31:20.106Z,996.82
2023-03-23T01:34:20.070Z,996.86
2023-03-23T01:37:20.070Z,996.88
2023-03-23T01:40:20.077Z,996.92
2023-03-23T01:43:20.086Z,996.86
2023-03-23T01:46:20.084Z,996.76
2023-03-23T01:49:20.072Z,996.73
2023-03-23T01:52:20.073Z,996.74
2023-03-23T01:55:20.102Z,996.78
2023-03-23T01:58:20.106Z,996.71
2023-03-23T02:01:20.073Z,996.74
2023-03-23T02:04:20.089Z,996.8
2023-03-23T02:07:20.065Z,996.75
2023-03-23T02:10:20.092Z,996.8
2023-03-23T02:13:20.078Z,996.84
2023-03-23T02:16:20.162Z,996.88
2023-03-23T02:19:20.124Z,996.89
2023-03-23T02:22:20.109Z,996.88
2023-03-23T02:25:20.125Z,996.87
2023-03-23T02:28:20.118Z,996.87
2023-03-23T02:31:20.096Z,996.74
2023-03-23T02:34:20.112Z,996.69
2023-03-23T02:37:20.114Z,996.65
2023-03-23T02:40:20.132Z,996.6
2023-03-23T02:43:20.110Z,996.65
2023-03-23T02:46:20.118Z,996.65
2023-03-23T02:49:20.122Z,996.79
2023-03-23T02:52:20.110Z,996.8
2023-03-23T02:55:20.126Z,996.73
2023-03-23T02:58:20.116Z,996.69
2023-03-23T03:01:20.125Z,996.67
2023-03-23T03:04:20.130Z,996.61
2023-03-23T03:07:20.107Z,996.51
2023-03-23T03:10:20.120Z,996.52
2023-03-23T03:13:20.132Z,996.49
2023-03-23T03:16:20.084Z,996.51
2023-03-23T03:19:20.116Z,996.45
2023-03-23T03:22:20.128Z,996.4
2023-03-23T03:25:20.115Z,996.37
2023-03-23T03:28:20.112Z,996.37
2023-03-23T03:31:20.104Z,996.44
2023-03-23T03:34:20.103Z,996.47
2023-03-23T03:37:20.101Z,996.42
2023-03-23T03:40:20.121Z,996.42
2023-03-23T03:43:20.124Z,996.43
2023-03-23T03:46:20.120Z,996.45
2023-03-23T03:49:20.156Z,996.51
2023-03-23T03:52:20.115Z,996.58
2023-03-23T03:55:20.116Z,996.59
2023-03-23T03:58:20.119Z,996.58
2023-03-23T04:01:20.104Z,996.61
2023-03-23T04:04:20.113Z,996.59
2023-03-23T04:07:20.133Z,996.59
2023-03-23T04:10:32.503Z,996.56
2023-03-23T04:13:20.108Z,996.59
2023-03-23T04:16:20.114Z,996.54
2023-03-23T04:19:20.116Z,996.59
2023-03-23T04:22:20.116Z,996.54
2023-03-23T04:25:20.127Z,996.59
2023-03-23T04:28:20.130Z,996.6
2023-03-23T04:31:20.125Z,996.69
2023-03-23T04:34:20.109Z,996.65
2023-03-23T04:37:20.140Z,996.67
2023-03-23T04:40:20.144Z,996.75
2023-03-23T04:43:20.120Z,996.76
2023-03-23T04:46:20.105Z,996.74
2023-03-23T04:49:20.109Z,996.75
2023-03-23T04:52:20.109Z,996.78
2023-03-23T04:55:20.108Z,996.82
2023-03-23T04:58:20.111Z,996.82
2023-03-23T05:01:20.107Z,996.75
2023-03-23T05:04:20.109Z,996.75
2023-03-23T05:07:20.123Z,996.72
2023-03-23T05:10:24.577Z,996.73
2023-03-23T05:13:20.119Z,996.73
2023-03-23T05:16:20.100Z,996.72
2023-03-23T05:19:20.396Z,996.76
2023-03-23T05:22:20.088Z,996.86
2023-03-23T05:25:20.111Z,996.91
2023-03-23T05:28:20.107Z,996.82
2023-03-23T05:31:20.093Z,996.83
2023-03-23T05:34:20.102Z,996.86
2023-03-23T05:37:20.097Z,996.83
2023-03-23T05:40:20.114Z,996.87
2023-03-23T05:43:20.087Z,996.89
2023-03-23T05:46:20.089Z,996.94
2023-03-23T05:49:20.087Z,996.85
2023-03-23T05:52:20.088Z,996.89
2023-03-23T05:55:20.093Z,996.96
2023-03-23T05:58:20.109Z,996.95
2023-03-23T06:01:20.093Z,996.96
2023-03-23T06:04:20.100Z,997.1
2023-03-23T06:07:20.097Z,997.15
2023-03-23T06:10:20.108Z,997.19
2023-03-23T06:13:20.088Z,997.16
2023-03-23T06:16:20.093Z,997.14
2023-03-23T06:19:20.101Z,997.16
2023-03-23T06:22:20.087Z,997.22
2023-03-23T06:25:20.096Z,997.28
2023-03-23T06:28:20.085Z,997.31
2023-03-23T06:31:20.087Z,997.26
2023-03-23T06:34:20.087Z,997.25
2023-03-23T06:37:20.094Z,997.24
2023-03-23T06:40:20.115Z,997.27
2023-03-23T06:43:20.093Z,997.28
2023-03-23T06:46:20.087Z,997.3
2023-03-23T06:49:21.155Z,997.36
2023-03-23T06:52:20.080Z,997.34
2023-03-23T06:55:20.088Z,997.49
2023-03-23T06:58:20.077Z,997.51
2023-03-23T07:01:20.079Z,997.43
2023-03-23T07:04:20.129Z,997.37
2023-03-23T07:07:20.107Z,997.3
2023-03-23T07:10:20.106Z,997.28
2023-03-23T07:13:20.101Z,997.3
2023-03-23T07:16:20.212Z,997.34
2023-03-23T07:19:20.342Z,997.41
2023-03-23T07:22:20.202Z,997.46
2023-03-23T07:25:20.123Z,997.54
2023-03-23T07:28:20.106Z,997.56
2023-03-23T07:31:20.097Z,997.55
2023-03-23T07:34:20.097Z,997.6
2023-03-23T07:37:20.095Z,997.59
2023-03-23T07:40:20.116Z,997.59
2023-03-23T07:43:20.082Z,997.63
2023-03-23T07:46:20.096Z,997.6
2023-03-23T07:49:20.081Z,997.56
2023-03-23T07:52:20.087Z,997.61
2023-03-23T07:55:20.093Z,997.69
2023-03-23T07:58:20.074Z,997.67
2023-03-23T08:01:20.088Z,997.73
2023-03-23T08:04:20.075Z,997.8
2023-03-23T08:07:20.140Z,997.82
2023-03-23T08:10:20.072Z,997.88
2023-03-23T08:13:20.095Z,997.88
2023-03-23T08:16:20.081Z,997.85
2023-03-23T08:19:20.090Z,997.91
2023-03-23T08:22:20.111Z,997.93
2023-03-23T08:25:20.083Z,997.97
2023-03-23T08:28:20.073Z,997.93
2023-03-23T08:31:20.078Z,997.92
2023-03-23T08:34:20.078Z,997.94
2023-03-23T08:37:20.067Z,998
2023-03-23T08:40:20.137Z,998.11
2023-03-23T08:43:20.067Z,998.11
2023-03-23T08:46:20.070Z,998.09
2023-03-23T08:49:20.076Z,998.17
2023-03-23T08:52:20.068Z,998.24
2023-03-23T08:55:21.336Z,998.17
2023-03-23T08:58:20.078Z,998.18
2023-03-23T09:01:20.095Z,998.18
2023-03-23T09:04:20.073Z,998.14
2023-03-23T09:07:20.142Z,998.05
2023-03-23T09:10:20.086Z,998.07
2023-03-23T09:13:20.093Z,998.1
2023-03-23T09:16:20.099Z,998.06
2023-03-23T09:19:20.089Z,998.04
2023-03-23T09:22:20.089Z,998.02
2023-03-23T09:25:20.095Z,998.09
2023-03-23T09:28:20.100Z,998.1
2023-03-23T09:31:20.899Z,998.13
2023-03-23T09:34:20.094Z,998.08
2023-03-23T09:37:20.079Z,998.14
2023-03-23T09:40:20.101Z,998.22
2023-03-23T09:43:20.082Z,998.2
2023-03-23T09:46:20.075Z,998.17
2023-03-23T09:49:20.079Z,998.2
2023-03-23T09:52:20.076Z,998.22
2023-03-23T09:55:20.091Z,998.16
2023-03-23T09:58:20.097Z,998.2
2023-03-23T10:01:20.074Z,998.16
2023-03-23T10:04:20.086Z,998.14
2023-03-23T10:07:20.084Z,998.16
2023-03-23T10:10:20.074Z,998.19
2023-03-23T10:13:20.082Z,998.24
2023-03-23T10:16:20.089Z,998.26
2023-03-23T10:19:20.070Z,998.31
2023-03-23T10:22:20.068Z,998.38
2023-03-23T10:25:20.071Z,998.39
2023-03-23T10:28:20.070Z,998.44
2023-03-23T10:31:20.068Z,998.49
2023-03-23T10:34:20.064Z,998.56
2023-03-23T10:37:20.063Z,998.57
2023-03-23T10:40:22.088Z,998.56
2023-03-23T10:43:20.128Z,998.54
2023-03-23T10:46:29.865Z,998.54
2023-03-23T10:49:20.086Z,998.49
2023-03-23T10:52:20.084Z,998.5
2023-03-23T10:55:20.098Z,998.52
2023-03-23T10:58:20.215Z,998.52
2023-03-23T11:01:20.082Z,998.45
2023-03-23T11:04:20.076Z,998.53
2023-03-23T11:07:20.083Z,998.48
2023-03-23T11:10:20.091Z,998.52
2023-03-23T11:13:20.082Z,998.56
2023-03-23T11:16:20.083Z,998.5
2023-03-23T11:19:20.082Z,998.57
2023-03-23T11:22:20.087Z,998.63
2023-03-23T11:25:20.091Z,998.63
2023-03-23T11:28:20.070Z,998.64
2023-03-23T11:31:20.072Z,998.58
2023-03-23T11:34:20.073Z,998.56
2023-03-23T11:37:20.068Z,998.45
2023-03-23T11:40:20.074Z,998.4
2023-03-23T11:43:20.066Z,998.43
2023-03-23T11:46:20.056Z,998.49
2023-03-23T11:49:25.494Z,998.46
2023-03-23T11:52:20.075Z,998.52
2023-03-23T11:55:20.074Z,998.46
2023-03-23T11:58:20.065Z,998.51
2023-03-23T12:01:20.371Z,998.51
2023-03-23T12:04:20.099Z,998.53
2023-03-23T12:07:20.085Z,998.52
2023-03-23T12:10:21.870Z,998.41
2023-03-23T12:13:20.975Z,998.38
2023-03-23T12:16:20.070Z,998.35
2023-03-23T12:19:20.073Z,998.39
2023-03-23T12:22:20.087Z,998.35
2023-03-23T12:25:20.070Z,998.38
2023-03-23T12:28:20.051Z,998.32
2023-03-23T12:31:20.067Z,998.32
2023-03-23T12:34:20.051Z,998.22
2023-03-23T12:37:20.057Z,998.09
2023-03-23T12:40:20.062Z,997.96
2023-03-23T12:43:20.062Z,997.88
2023-03-23T12:46:20.081Z,997.84
2023-03-23T12:49:20.057Z,997.92
2023-03-23T12:52:20.051Z,997.95
2023-03-23T12:55:20.059Z,997.94
2023-03-23T12:58:20.058Z,997.86
2023-03-23T13:01:20.042Z,997.85
2023-03-23T13:04:20.049Z,997.88
2023-03-23T13:07:20.047Z,997.89
2023-03-23T13:10:20.042Z,998.03
2023-03-23T13:13:21.042Z,998.18
2023-03-23T13:16:20.058Z,998.15
2023-03-23T13:19:20.047Z,997.89
2023-03-23T13:22:20.032Z,997.77
2023-03-23T13:25:20.048Z,997.77
2023-03-23T13:28:20.034Z,997.77
2023-03-23T13:31:20.044Z,997.76
2023-03-23T13:34:20.037Z,997.75
2023-03-23T13:37:20.041Z,997.74
2023-03-23T13:40:20.045Z,997.84
2023-03-23T13:43:20.034Z,997.86
2023-03-23T13:46:20.030Z,997.87
2023-03-23T13:49:20.074Z,997.83
2023-03-23T13:52:20.037Z,997.86
2023-03-23T13:55:20.216Z,997.85
2023-03-23T13:58:20.036Z,997.87
2023-03-23T14:01:20.055Z,997.82
2023-03-23T14:04:20.039Z,997.8
2023-03-23T14:07:20.046Z,997.83
2023-03-23T14:10:20.042Z,997.88
2023-03-23T14:13:20.045Z,997.9
2023-03-23T14:16:20.055Z,997.89
2023-03-23T14:19:20.045Z,997.86
2023-03-23T14:22:20.059Z,997.87
2023-03-23T14:25:20.069Z,997.85
2023-03-23T14:28:20.052Z,997.83
2023-03-23T14:31:20.044Z,997.87
2023-03-23T14:34:20.044Z,997.9
2023-03-23T14:37:20.049Z,997.83
2023-03-23T14:40:20.036Z,997.82
2023-03-23T14:43:20.036Z,997.89
2023-03-23T14:46:20.044Z,997.85
2023-03-23T14:49:20.041Z,997.86
2023-03-23T14:52:20.048Z,997.87
2023-03-23T14:55:20.047Z,997.87
2023-03-23T14:58:20.037Z,997.85
2023-03-23T15:01:20.046Z,997.86
2023-03-23T15:04:20.032Z,997.83
2023-03-23T15:07:20.034Z,997.78
2023-03-23T15:10:20.052Z,997.81
2023-03-23T15:13:20.037Z,997.83
2023-03-23T15:16:20.025Z,997.7
2023-03-23T15:19:20.023Z,997.69
2023-03-23T15:22:20.031Z,997.74
2023-03-23T15:25:20.042Z,997.73
2023-03-23T15:28:20.032Z,997.72
2023-03-23T15:31:20.038Z,997.72
2023-03-23T15:34:20.039Z,997.71
2023-03-23T15:40:20.032Z,997.69
2023-03-23T15:43:20.047Z,997.74
2023-03-23T15:46:20.035Z,997.67
2023-03-23T15:49:20.026Z,997.63
2023-03-23T15:52:20.027Z,997.65
2023-03-23T15:55:20.028Z,997.65
2023-03-23T15:58:20.030Z,997.69
2023-03-23T16:01:20.059Z,997.7
2023-03-23T16:04:20.065Z,997.68
2023-03-23T16:07:20.032Z,997.63
2023-03-23T16:10:20.042Z,997.73
2023-03-23T16:13:20.022Z,997.72
2023-03-23T16:16:20.018Z,997.77
2023-03-23T16:19:20.020Z,997.78
2023-03-23T16:22:20.030Z,997.82
2023-03-23T16:25:20.030Z,997.92
2023-03-23T16:28:20.019Z,997.85
2023-03-23T16:31:20.061Z,997.84
2023-03-23T16:34:20.016Z,997.83
2023-03-23T16:37:20.017Z,997.83
2023-03-23T16:40:20.008Z,997.87
2023-03-23T16:43:20.009Z,997.84
2023-03-23T16:46:20.065Z,997.75
2023-03-23T16:49:20.006Z,997.7
2023-03-23T16:52:20.007Z,997.68
2023-03-23T16:55:20.004Z,997.69
2023-03-23T16:58:20.004Z,997.79
2023-03-23T17:01:20.063Z,997.77
2023-03-23T17:04:20.013Z,997.75
2023-03-23T17:07:20.030Z,997.72
2023-03-23T17:10:20.020Z,997.69
2023-03-23T17:13:19.995Z,997.71
2023-03-23T17:16:20.012Z,997.65
2023-03-23T17:19:20.012Z,997.64
2023-03-23T17:22:19.990Z,997.64
2023-03-23T17:25:19.989Z,997.63
2023-03-23T17:28:20.948Z,997.61
2023-03-23T17:31:20.027Z,997.58
2023-03-23T17:34:19.982Z,997.57
2023-03-23T17:37:20.010Z,997.61
2023-03-23T17:40:19.980Z,997.59
2023-03-23T17:43:19.993Z,997.59
2023-03-23T17:46:20.017Z,997.62
2023-03-23T17:49:20.004Z,997.63
2023-03-23T17:52:20.000Z,997.65
2023-03-23T17:55:20.002Z,997.73
2023-03-23T17:58:19.984Z,997.81
2023-03-23T18:01:19.984Z,997.83
2023-03-23T18:04:19.977Z,997.88
2023-03-23T18:07:19.980Z,997.85
2023-03-23T18:10:19.980Z,997.9
2023-03-23T18:13:19.981Z,997.91
2023-03-23T18:16:20.047Z,997.96
2023-03-23T18:19:19.982Z,997.94
2023-03-23T18:22:19.992Z,997.89
2023-03-23T18:25:19.979Z,997.92
2023-03-23T18:28:19.976Z,997.87
2023-03-23T18:31:19.999Z,997.83
2023-03-23T18:34:19.983Z,997.78
2023-03-23T18:37:19.972Z,997.75
2023-03-23T18:40:20.031Z,997.68
2023-03-23T18:43:19.969Z,997.71
2023-03-23T18:46:20.047Z,997.71
2023-03-23T18:49:19.968Z,997.69
2023-03-23T18:52:19.987Z,997.75
2023-03-23T18:55:20.944Z,997.8
2023-03-23T18:58:19.970Z,997.83
2023-03-23T19:01:20.017Z,997.85
2023-03-23T19:04:19.978Z,997.86
2023-03-23T19:07:20.062Z,997.89
2023-03-23T19:10:19.974Z,997.9
2023-03-23T19:13:19.968Z,997.9
2023-03-23T19:16:19.983Z,997.88
2023-03-23T19:19:19.987Z,997.86
2023-03-23T19:22:19.970Z,997.89
2023-03-23T19:25:19.969Z,997.88
2023-03-23T19:31:20.021Z,997.81
2023-03-23T19:34:19.970Z,997.81
2023-03-23T19:37:20.005Z,997.77
2023-03-23T19:40:36.481Z,997.72
2023-03-23T19:43:19.971Z,997.7
2023-03-23T19:46:20.591Z,997.7
2023-03-23T19:49:20.142Z,997.63
2023-03-23T19:52:19.976Z,997.54
2023-03-23T19:55:19.963Z,997.52
2023-03-23T19:58:20.469Z,997.49
2023-03-23T20:01:20.243Z,997.38
2023-03-23T20:04:19.965Z,997.39
2023-03-23T20:07:21.282Z,997.5
2023-03-23T20:10:19.957Z,997.44
2023-03-23T20:13:19.985Z,997.41
2023-03-23T20:16:19.955Z,997.41
2023-03-23T20:19:19.955Z,997.34
2023-03-23T20:22:19.966Z,997.29
2023-03-23T20:25:19.997Z,997.3
2023-03-23T20:28:19.952Z,997.29
2023-03-23T20:31:23.712Z,997.27
2023-03-23T20:34:19.953Z,997.21
2023-03-23T20:37:19.939Z,997.18
2023-03-23T20:40:19.940Z,997.12
2023-03-23T20:43:19.952Z,997.08
2023-03-23T20:46:20.006Z,997.08
2023-03-23T20:49:19.948Z,997.02
2023-03-23T20:52:19.945Z,996.95
2023-03-23T20:55:19.937Z,996.97
2023-03-23T20:58:19.983Z,996.96
2023-03-23T21:01:19.970Z,996.94
2023-03-23T21:04:19.984Z,996.92
2023-03-23T21:07:19.973Z,996.9
2023-03-23T21:10:19.941Z,996.83
2023-03-23T21:13:19.970Z,996.78
2023-03-23T21:16:19.949Z,996.78
2023-03-23T21:19:20.396Z,996.75
2023-03-23T21:22:19.955Z,996.74
2023-03-23T21:25:19.938Z,996.71
2023-03-23T21:28:19.933Z,996.72
2023-03-23T21:31:19.932Z,996.62
2023-03-23T21:34:19.953Z,996.6
2023-03-23T21:37:19.919Z,996.47
2023-03-23T21:40:19.946Z,996.52
2023-03-23T21:43:19.944Z,996.5
2023-03-23T21:46:19.927Z,996.46
2023-03-23T21:49:19.933Z,996.41
2023-03-23T21:52:19.965Z,996.4
2023-03-23T21:55:19.913Z,996.39
2023-03-23T21:58:19.937Z,996.39
2023-03-23T22:01:19.922Z,996.35
2023-03-23T22:04:19.920Z,996.23
2023-03-23T22:07:19.925Z,996.23
2023-03-23T22:10:19.932Z,996.21
2023-03-23T22:13:19.920Z,996.17
2023-03-23T22:16:20.003Z,996.18
2023-03-23T22:19:19.945Z,996.17
2023-03-23T22:22:19.937Z,996.12
2023-03-23T22:25:19.926Z,996.1
2023-03-23T22:28:19.920Z,996.1
2023-03-23T22:31:19.969Z,996.08
2023-03-23T22:34:19.961Z,996.14
2023-03-23T22:37:19.919Z,996.09
2023-03-23T22:40:19.945Z,996.1
2023-03-23T22:43:19.939Z,996.09
2023-03-23T22:46:19.952Z,996.09
2023-03-23T22:49:19.944Z,996.1
2023-03-23T22:52:19.937Z,996.08
2023-03-23T22:55:19.943Z,996.09
2023-03-23T22:58:19.925Z,996.04
2023-03-23T23:01:19.953Z,996.05
2023-03-23T23:04:19.978Z,995.96
2023-03-23T23:07:19.911Z,995.78
2023-03-23T23:10:19.913Z,995.74
2023-03-23T23:13:19.922Z,995.72
2023-03-23T23:16:19.948Z,995.8
2023-03-23T23:19:19.920Z,995.87
2023-03-23T23:22:19.928Z,995.81
2023-03-23T23:25:19.905Z,995.7
2023-03-23T23:28:19.933Z,995.74
2023-03-23T23:31:19.926Z,995.79
2023-03-23T23:34:19.914Z,995.8
2023-03-23T23:37:20.032Z,995.76
2023-03-23T23:40:19.924Z,995.59
2023-03-23T23:43:19.924Z,995.57
2023-03-23T23:46:19.995Z,995.56
2023-03-23T23:49:19.903Z,995.58
2023-03-23T23:52:19.907Z,995.53
2023-03-23T23:55:19.899Z,995.45
2023-03-23T23:58:19.895Z,995.43
